Cengiztopel, Turkey

7:28 AM +03 on April 24, 2017 (GMT +0300)
Başiskele | | Change Station

Elev 0 ft 40.71 °N, 29.88 °E | Updated 1 minute ago

Rain
Rain
44.1 °F
Feels Like 44 °F
N
1.9
Wind Variable Wind from WNW
Gusts 3.7 mph

Today
High -- | Low -- °F
--% Chance of Precip.
Yesterday
High -- | Low -- °F
Precip. -- in
Pressure 30.18 in
Visibility 3.7 miles
Clouds Few 1500 ft
Mostly Cloudy 3000 ft
Mostly Cloudy 10000 ft
Windchill 44 °F
Dew Point 40 °F
Humidity 84%
Rainfall 0.09 in
Snow Depth Not available.
6:08 AM 7:49 PM
Waning Crescent, 8% visible
METAR LTBQ 240350Z VRB02KT 6000 -SHRA FEW015 BKN030 BKN100 07/07 Q1022 TEMPO 4000 BR
Pressure 30.18 in
Visibility 3.7 miles
Clouds Few 1500 ft
Mostly Cloudy 3000 ft
Mostly Cloudy 10000 ft
Windchill 44 °F
Dew Point 40 °F
Humidity 84%
Rainfall 0.09 in
Snow Depth Not available.
6:08 AM 7:49 PM
Waning Crescent, 8% visible
METAR LTBQ 240350Z VRB02KT 6000 -SHRA FEW015 BKN030 BKN100 07/07 Q1022 TEMPO 4000 BR

Get Severe Weather Alerts

Thanks for signing up!

Be on the lookout for a verification email in your inbox.

You'll start receiving the daily forecast at 8 AM.

×

10-Day Weather Forecast

×

Almanac

Astronomy

Apr. 24, 2017 Rise Set
Actual Time
Civil Twilight
Nautical Twilight
Astronomical Twilight
Moon
Length of Visible Light
Length of Day
Tomorrow will be .
, % of the Moon is Illuminated

Today's Extremes

Country Highs Country Lows

Community

WunderPhotos

WunderBlog® & News

Nearby

Air Quality

  Air Quality AQ Index Pollutant
Not available.

Snow Depth

Station Depth Elevation

Earthquake Activity

City Distance Mag. Time & Date
Minimum magnitude displayed is 2.5.

Coastal Water Temperatures

Place Temperature

Stations

Nearby Weather Stations

Station Location Temp. Windchill Dew Point Humidity Wind Precip. Elev Updated Type